Time,TemperatureF,DewpointF,PressureIn,WindDirection,WindDirectionDegrees,WindSpeedMPH,WindSpeedGustMPH,Humidity,HourlyPrecipIn,Conditions,Clouds,dailyrainin,SoftwareType,DateUTC
2013-02-20 00:00:00,41.1,39.8,29.63,West,265,0.0,14.0,95,0.00,,,0.16,Wunderground v.1.15,2013-02-20 08:00:00,
2013-02-20 00:05:00,40.9,39.6,29.63,West,265,0.0,14.0,95,0.00,,,0.16,Wunderground v.1.15,2013-02-20 08:05:00,
2013-02-20 00:11:00,40.5,39.2,29.64,West,265,0.0,14.0,95,0.00,,,0.16,Wunderground v.1.15,2013-02-20 08:11:00,
2013-02-20 00:16:00,40.3,39.0,29.64,West,265,0.0,14.0,95,0.00,,,0.16,Wunderground v.1.15,2013-02-20 08:16:00,
2013-02-20 00:21:00,40.0,38.7,29.63,West,265,0.0,14.0,95,0.00,,,0.16,Wunderground v.1.15,2013-02-20 08:21:00,
2013-02-20 00:26:00,39.7,38.4,29.63,West,265,0.0,14.0,95,0.00,,,0.16,Wunderground v.1.15,2013-02-20 08:26:00,
2013-02-20 00:31:00,39.6,38.3,29.63,West,265,0.0,14.0,95,0.00,,,0.16,Wunderground v.1.15,2013-02-20 08:31:00,
2013-02-20 00:36:00,39.5,38.5,29.63,West,265,0.0,14.0,96,0.00,,,0.16,Wunderground v.1.15,2013-02-20 08:36:00,
2013-02-20 00:41:00,39.3,38.3,29.63,West,265,0.0,14.0,96,0.00,,,0.16,Wunderground v.1.15,2013-02-20 08:41:00,
2013-02-20 00:46:00,39.2,38.2,29.63,West,265,0.0,14.0,96,0.00,,,0.16,Wunderground v.1.15,2013-02-20 08:46:00,
2013-02-20 00:51:00,39.1,38.1,29.63,West,265,0.0,14.0,96,0.00,,,0.16,Wunderground v.1.15,2013-02-20 08:51:00,
2013-02-20 00:56:00,38.9,37.9,29.63,West,265,0.0,14.0,96,0.00,,,0.16,Wunderground v.1.15,2013-02-20 08:56:00,
2013-02-20 01:01:00,38.8,37.8,29.63,West,265,0.0,14.0,96,0.00,,,0.16,Wunderground v.1.15,2013-02-20 09:01:00,
2013-02-20 01:07:00,38.6,37.6,29.63,West,265,0.0,14.0,96,0.00,,,0.16,Wunderground v.1.15,2013-02-20 09:07:00,
2013-02-20 01:12:00,38.5,37.5,29.64,West,265,0.0,14.0,96,0.00,,,0.16,Wunderground v.1.15,2013-02-20 09:12:00,
2013-02-20 01:17:00,38.3,37.3,29.63,West,265,0.0,14.0,96,0.00,,,0.16,Wunderground v.1.15,2013-02-20 09:17:00,
2013-02-20 01:22:00,38.1,37.1,29.63,West,265,0.0,14.0,96,0.00,,,0.16,Wunderground v.1.15,2013-02-20 09:22:00,
2013-02-20 01:27:00,38.0,37.0,29.63,West,265,0.0,14.0,96,0.00,,,0.16,Wunderground v.1.15,2013-02-20 09:27:00,
2013-02-20 01:32:00,37.8,36.8,29.63,West,265,0.0,14.0,96,0.00,,,0.16,Wunderground v.1.15,2013-02-20 09:32:00,
2013-02-20 01:37:00,37.6,36.6,29.63,West,265,0.0,14.0,96,0.00,,,0.16,Wunderground v.1.15,2013-02-20 09:37:00,
2013-02-20 01:42:00,37.4,36.4,29.63,West,265,0.0,14.0,96,0.00,,,0.16,Wunderground v.1.15,2013-02-20 09:42:00,
2013-02-20 01:48:00,37.3,36.3,29.63,West,265,0.0,14.0,96,0.00,,,0.16,Wunderground v.1.15,2013-02-20 09:48:00,
2013-02-20 01:53:00,37.2,36.2,29.63,West,265,0.0,14.0,96,0.00,,,0.16,Wunderground v.1.15,2013-02-20 09:53:00,
2013-02-20 01:58:00,37.1,36.1,29.62,West,265,0.0,14.0,96,0.00,,,0.16,Wunderground v.1.15,2013-02-20 09:58:00,
2013-02-20 02:03:00,37.1,36.1,29.63,West,265,0.0,14.0,96,0.00,,,0.16,Wunderground v.1.15,2013-02-20 10:03:00,
2013-02-20 02:08:00,36.9,35.9,29.63,West,265,0.0,14.0,96,0.00,,,0.16,Wunderground v.1.15,2013-02-20 10:08:00,
2013-02-20 02:13:00,36.8,35.8,29.63,West,265,0.0,14.0,96,0.00,,,0.16,Wunderground v.1.15,2013-02-20 10:13:00,
2013-02-20 02:18:00,36.6,35.6,29.63,West,265,0.0,14.0,96,0.00,,,0.16,Wunderground v.1.15,2013-02-20 10:18:00,
2013-02-20 02:23:00,36.4,35.4,29.63,West,265,0.0,14.0,96,0.00,,,0.16,Wunderground v.1.15,2013-02-20 10:23:00,
2013-02-20 02:28:00,36.2,35.2,29.63,West,265,0.0,14.0,96,0.00,,,0.16,Wunderground v.1.15,2013-02-20 10:28:00,
2013-02-20 02:33:00,36.1,35.1,29.63,West,265,0.0,14.0,96,0.00,,,0.16,Wunderground v.1.15,2013-02-20 10:33:00,
2013-02-20 02:38:00,36.0,35.0,29.64,West,265,0.0,14.0,96,0.00,,,0.16,Wunderground v.1.15,2013-02-20 10:38:00,
2013-02-20 02:43:00,35.9,34.9,29.64,West,265,0.0,14.0,96,0.00,,,0.16,Wunderground v.1.15,2013-02-20 10:43:00,
2013-02-20 02:48:00,35.9,34.9,29.63,West,265,0.0,14.0,96,0.00,,,0.16,Wunderground v.1.15,2013-02-20 10:48:00,
2013-02-20 02:54:00,35.7,34.7,29.63,West,265,0.0,14.0,96,0.00,,,0.16,Wunderground v.1.15,2013-02-20 10:54:00,
2013-02-20 02:59:00,35.5,34.5,29.64,West,265,0.0,14.0,96,0.00,,,0.16,Wunderground v.1.15,2013-02-20 10:59:00,
2013-02-20 03:04:00,35.5,34.5,29.64,West,265,0.0,14.0,96,0.00,,,0.16,Wunderground v.1.15,2013-02-20 11:04:00,
2013-02-20 03:09:00,35.4,34.4,29.64,West,265,0.0,14.0,96,0.00,,,0.16,Wunderground v.1.15,2013-02-20 11:09:00,
2013-02-20 03:14:00,35.3,34.3,29.63,West,265,0.0,14.0,96,0.00,,,0.16,Wunderground v.1.15,2013-02-20 11:14:00,
2013-02-20 03:20:00,35.2,34.2,29.64,West,265,0.0,14.0,96,0.00,,,0.16,Wunderground v.1.15,2013-02-20 11:20:00,
2013-02-20 03:25:00,35.2,34.2,29.64,West,265,0.0,14.0,96,0.00,,,0.16,Wunderground v.1.15,2013-02-20 11:25:00,
2013-02-20 03:30:00,35.1,34.1,29.64,West,265,0.0,14.0,96,0.00,,,0.16,Wunderground v.1.15,2013-02-20 11:30:00,
2013-02-20 03:36:00,34.9,33.9,29.64,West,265,0.0,14.0,96,0.00,,,0.16,Wunderground v.1.15,2013-02-20 11:36:00,
2013-02-20 03:41:00,34.8,33.8,29.64,West,265,0.0,14.0,96,0.00,,,0.16,Wunderground v.1.15,2013-02-20 11:41:00,
2013-02-20 03:46:00,34.8,33.8,29.64,West,265,0.0,14.0,96,0.00,,,0.16,Wunderground v.1.15,2013-02-20 11:46:00,
2013-02-20 03:51:00,34.7,33.7,29.64,West,265,0.0,14.0,96,0.00,,,0.16,Wunderground v.1.15,2013-02-20 11:51:00,
2013-02-20 03:56:00,34.7,33.7,29.64,West,265,0.0,14.0,96,0.00,,,0.16,Wunderground v.1.15,2013-02-20 11:56:00,
2013-02-20 04:01:00,34.6,33.6,29.64,West,265,0.0,14.0,96,0.00,,,0.16,Wunderground v.1.15,2013-02-20 12:01:00,
2013-02-20 04:06:00,34.5,33.5,29.65,West,265,0.0,14.0,96,0.00,,,0.16,Wunderground v.1.15,2013-02-20 12:06:00,
2013-02-20 04:11:00,34.4,33.4,29.65,West,265,0.0,14.0,96,0.00,,,0.16,Wunderground v.1.15,2013-02-20 12:11:00,
2013-02-20 04:16:00,34.4,33.6,29.65,West,265,0.0,14.0,97,0.00,,,0.16,Wunderground v.1.15,2013-02-20 12:16:00,
2013-02-20 04:21:00,34.4,33.4,29.65,West,265,0.0,14.0,96,0.00,,,0.16,Wunderground v.1.15,2013-02-20 12:21:00,
2013-02-20 04:27:00,34.4,33.6,29.65,West,265,0.0,14.0,97,0.00,,,0.16,Wunderground v.1.15,2013-02-20 12:27:00,
2013-02-20 04:32:00,34.4,33.6,29.66,West,265,0.0,14.0,97,0.00,,,0.16,Wunderground v.1.15,2013-02-20 12:32:00,
2013-02-20 04:37:00,34.3,33.5,29.66,West,265,0.0,14.0,97,0.00,,,0.16,Wunderground v.1.15,2013-02-20 12:37:00,
2013-02-20 04:42:00,34.2,33.4,29.66,West,265,0.0,14.0,97,0.00,,,0.16,Wunderground v.1.15,2013-02-20 12:42:00,
2013-02-20 04:47:00,34.1,33.1,29.66,West,265,0.0,14.0,96,0.00,,,0.16,Wunderground v.1.15,2013-02-20 12:47:00,
2013-02-20 04:52:00,34.0,33.0,29.66,West,265,0.0,14.0,96,0.00,,,0.00,Wunderground v.1.15,2013-02-20 12:52:00,
2013-02-20 04:57:00,33.9,32.9,29.66,West,265,0.0,14.0,96,0.00,,,0.00,Wunderground v.1.15,2013-02-20 12:57:00,
2013-02-20 05:02:00,33.8,32.8,29.66,West,265,0.0,14.0,96,0.00,,,0.00,Wunderground v.1.15,2013-02-20 13:02:00,
2013-02-20 05:07:00,33.7,32.7,29.66,West,265,0.0,14.0,96,0.00,,,0.00,Wunderground v.1.15,2013-02-20 13:07:00,
2013-02-20 05:12:00,33.6,32.6,29.66,West,265,0.0,14.0,96,0.00,,,0.00,Wunderground v.1.15,2013-02-20 13:12:00,
2013-02-20 05:17:00,33.4,32.4,29.66,West,265,0.0,14.0,96,0.00,,,0.00,Wunderground v.1.15,2013-02-20 13:17:00,
2013-02-20 05:23:00,33.2,32.2,29.65,West,265,0.0,14.0,96,0.00,,,0.00,Wunderground v.1.15,2013-02-20 13:23:00,
2013-02-20 05:28:00,33.2,32.2,29.66,West,265,0.0,14.0,96,0.00,,,0.00,Wunderground v.1.15,2013-02-20 13:28:00,
2013-02-20 05:33:00,33.1,32.3,29.66,West,265,0.0,14.0,97,0.00,,,0.00,Wunderground v.1.15,2013-02-20 13:33:00,
2013-02-20 05:38:00,33.0,32.0,29.66,West,265,0.0,14.0,96,0.00,,,0.00,Wunderground v.1.15,2013-02-20 13:38:00,
2013-02-20 05:43:00,33.0,32.2,29.66,West,265,0.0,14.0,97,0.00,,,0.00,Wunderground v.1.15,2013-02-20 13:43:00,
2013-02-20 05:48:00,32.9,31.9,29.67,West,265,0.0,14.0,96,0.00,,,0.00,Wunderground v.1.15,2013-02-20 13:48:00,
2013-02-20 05:53:00,32.9,31.9,29.66,West,265,0.0,14.0,96,0.00,,,0.00,Wunderground v.1.15,2013-02-20 13:53:00,
2013-02-20 05:59:00,33.0,32.2,29.67,West,265,0.0,14.0,97,0.00,,,0.00,Wunderground v.1.15,2013-02-20 13:59:00,
2013-02-20 06:05:00,33.0,32.2,29.67,West,265,0.0,14.0,97,0.00,,,0.00,Wunderground v.1.15,2013-02-20 14:05:00,
2013-02-20 06:10:00,32.9,32.1,29.67,West,265,0.0,14.0,97,0.00,,,0.00,Wunderground v.1.15,2013-02-20 14:10:00,
2013-02-20 06:15:00,32.8,32.0,29.68,West,265,0.0,14.0,97,0.00,,,0.00,Wunderground v.1.15,2013-02-20 14:15:00,
2013-02-20 06:20:00,32.8,32.0,29.68,West,265,0.0,14.0,97,0.00,,,0.00,Wunderground v.1.15,2013-02-20 14:20:00,
2013-02-20 06:25:00,32.7,31.9,29.68,West,265,0.0,14.0,97,0.00,,,0.00,Wunderground v.1.15,2013-02-20 14:25:00,
2013-02-20 06:30:00,32.6,31.8,29.68,West,265,0.0,14.0,97,0.00,,,0.00,Wunderground v.1.15,2013-02-20 14:30:00,
2013-02-20 06:35:00,32.6,31.8,29.69,West,265,0.0,14.0,97,0.00,,,0.00,Wunderground v.1.15,2013-02-20 14:35:00,
2013-02-20 06:40:00,32.5,31.7,29.69,West,265,0.0,14.0,97,0.00,,,0.00,Wunderground v.1.15,2013-02-20 14:40:00,
2013-02-20 06:45:00,32.5,31.5,29.69,West,265,0.0,14.0,96,0.00,,,0.00,Wunderground v.1.15,2013-02-20 14:45:00,
2013-02-20 06:50:00,32.5,31.7,29.69,West,265,0.0,14.0,97,0.00,,,0.00,Wunderground v.1.15,2013-02-20 14:50:00,
2013-02-20 06:56:00,32.6,31.8,29.69,West,265,0.0,14.0,97,0.00,,,0.00,Wunderground v.1.15,2013-02-20 14:56:00,
2013-02-20 07:01:00,32.6,31.8,29.69,West,265,0.0,14.0,97,0.00,,,0.00,Wunderground v.1.15,2013-02-20 15:01:00,
2013-02-20 07:07:00,32.8,32.0,29.69,West,265,0.0,14.0,97,0.00,,,0.00,Wunderground v.1.15,2013-02-20 15:07:00,
2013-02-20 07:12:00,32.8,32.0,29.69,West,265,0.0,14.0,97,0.00,,,0.00,Wunderground v.1.15,2013-02-20 15:12:00,
2013-02-20 07:17:00,33.2,32.4,29.69,West,265,0.0,14.0,97,0.00,,,0.00,Wunderground v.1.15,2013-02-20 15:17:00,
2013-02-20 07:22:00,33.5,32.7,29.70,West,265,0.0,14.0,97,0.00,,,0.00,Wunderground v.1.15,2013-02-20 15:22:00,
2013-02-20 07:27:00,33.8,33.0,29.69,West,265,0.0,14.0,97,0.00,,,0.00,Wunderground v.1.15,2013-02-20 15:27:00,
2013-02-20 07:32:00,34.2,33.7,29.70,West,265,0.0,14.0,98,0.00,,,0.00,Wunderground v.1.15,2013-02-20 15:32:00,
2013-02-20 07:38:00,34.7,34.2,29.71,West,265,0.0,14.0,98,0.00,,,0.00,Wunderground v.1.15,2013-02-20 15:38:00,
2013-02-20 07:43:00,35.1,34.6,29.70,West,265,0.0,14.0,98,0.00,,,0.00,Wunderground v.1.15,2013-02-20 15:43:00,
2013-02-20 07:48:00,35.7,35.2,29.71,West,265,0.0,14.0,98,0.00,,,0.00,Wunderground v.1.15,2013-02-20 15:48:00,
2013-02-20 07:53:00,36.4,35.9,29.71,West,265,0.0,14.0,98,0.00,,,0.00,Wunderground v.1.15,2013-02-20 15:53:00,
2013-02-20 07:58:00,37.3,36.8,29.71,West,265,0.0,14.0,98,0.00,,,0.00,Wunderground v.1.15,2013-02-20 15:58:00,
2013-02-20 08:03:00,38.1,37.6,29.71,West,265,0.0,14.0,98,0.00,,,0.00,Wunderground v.1.15,2013-02-20 16:03:00,
2013-02-20 08:08:00,38.6,38.1,29.71,West,265,0.0,14.0,98,0.00,,,0.00,Wunderground v.1.15,2013-02-20 16:08:00,
2013-02-20 08:13:00,38.6,38.1,29.72,West,264,0.0,14.0,98,0.00,,,0.00,Wunderground v.1.15,2013-02-20 16:13:00,
2013-02-20 08:19:00,38.6,37.8,29.72,West,264,0.0,14.0,97,0.00,,,0.00,Wunderground v.1.15,2013-02-20 16:19:00,
2013-02-20 08:24:00,38.7,37.9,29.73,West,264,0.0,14.0,97,0.00,,,0.00,Wunderground v.1.15,2013-02-20 16:24:00,
2013-02-20 08:29:00,39.2,38.4,29.73,West,264,0.0,14.0,97,0.00,,,0.00,Wunderground v.1.15,2013-02-20 16:29:00,
2013-02-20 08:34:00,39.7,38.7,29.73,West,264,0.0,14.0,96,0.00,,,0.00,Wunderground v.1.15,2013-02-20 16:34:00,
2013-02-20 08:39:00,40.5,39.4,29.73,West,261,0.0,14.0,96,0.00,,,0.00,Wunderground v.1.15,2013-02-20 16:39:00,
2013-02-20 08:44:00,41.6,40.5,29.73,West,262,0.0,14.0,96,0.00,,,0.00,Wunderground v.1.15,2013-02-20 16:44:00,
2013-02-20 08:49:00,42.3,39.6,29.73,WSW,254,0.0,14.0,90,0.00,,,0.00,Wunderground v.1.15,2013-02-20 16:49:00,
2013-02-20 08:54:00,43.1,38.3,29.73,WSW,253,0.0,14.0,83,0.00,,,0.00,Wunderground v.1.15,2013-02-20 16:54:00,
2013-02-20 08:59:00,43.6,37.8,29.73,WSW,248,0.0,14.0,80,0.00,,,0.00,Wunderground v.1.15,2013-02-20 16:59:00,
2013-02-20 09:04:00,44.2,36.8,29.74,WSW,248,0.0,14.0,75,0.00,,,0.00,Wunderground v.1.15,2013-02-20 17:04:00,
2013-02-20 09:09:00,45.1,37.3,29.74,SW,221,0.0,14.0,74,0.00,,,0.00,Wunderground v.1.15,2013-02-20 17:09:00,
2013-02-20 09:14:00,46.1,36.9,29.74,SSE,166,0.0,14.0,70,0.00,,,0.00,Wunderground v.1.15,2013-02-20 17:14:00,
2013-02-20 09:19:00,46.9,37.3,29.74,SSE,166,0.0,14.0,69,0.00,,,0.00,Wunderground v.1.15,2013-02-20 17:19:00,
2013-02-20 09:25:00,48.0,37.6,29.74,SSE,166,0.0,14.0,67,0.00,,,0.00,Wunderground v.1.15,2013-02-20 17:25:00,
2013-02-20 09:30:00,48.6,36.2,29.74,SSE,166,0.0,14.0,62,0.00,,,0.00,Wunderground v.1.15,2013-02-20 17:30:00,
2013-02-20 09:35:00,49.5,37.0,29.75,SSE,165,0.0,14.0,62,0.00,,,0.00,Wunderground v.1.15,2013-02-20 17:35:00,
2013-02-20 09:40:00,50.0,36.2,29.75,SSE,166,0.0,14.0,59,0.00,,,0.00,Wunderground v.1.15,2013-02-20 17:40:00,
2013-02-20 09:45:00,50.1,35.0,29.75,South,170,0.0,14.0,56,0.00,,,0.00,Wunderground v.1.15,2013-02-20 17:45:00,
2013-02-20 09:51:00,50.5,37.5,29.75,South,169,0.0,14.0,61,0.00,,,0.00,Wunderground v.1.15,2013-02-20 17:51:00,
2013-02-20 09:56:00,50.9,35.3,29.76,West,267,0.0,14.0,55,0.00,,,0.00,Wunderground v.1.15,2013-02-20 17:56:00,
2013-02-20 10:01:00,51.2,36.0,29.76,WSW,256,0.0,14.0,56,0.00,,,0.00,Wunderground v.1.15,2013-02-20 18:01:00,
2013-02-20 10:07:00,51.0,34.5,29.76,SSW,211,1.0,14.0,53,0.00,,,0.00,Wunderground v.1.15,2013-02-20 18:07:00,
2013-02-20 10:12:00,51.2,36.5,29.76,SSW,211,0.0,14.0,57,0.00,,,0.00,Wunderground v.1.15,2013-02-20 18:12:00,
2013-02-20 10:17:00,52.0,36.3,29.76,SSW,209,0.0,14.0,55,0.00,,,0.00,Wunderground v.1.15,2013-02-20 18:17:00,
2013-02-20 10:22:00,52.2,36.5,29.76,SSE,157,0.0,14.0,55,0.00,,,0.00,Wunderground v.1.15,2013-02-20 18:22:00,
2013-02-20 10:27:00,52.2,36.0,29.77,South,178,1.0,14.0,54,0.00,,,0.00,Wunderground v.1.15,2013-02-20 18:27:00,
2013-02-20 10:32:00,52.7,37.9,29.77,SE,130,1.0,14.0,57,0.00,,,0.00,Wunderground v.1.15,2013-02-20 18:32:00,
2013-02-20 10:37:00,53.0,36.3,29.77,SE,129,0.0,14.0,53,0.00,,,0.00,Wunderground v.1.15,2013-02-20 18:37:00,
2013-02-20 10:42:00,53.7,37.9,29.77,SE,129,0.0,14.0,55,0.00,,,0.00,Wunderground v.1.15,2013-02-20 18:42:00,
2013-02-20 10:47:00,54.5,35.7,29.78,SE,145,0.0,14.0,49,0.00,,,0.00,Wunderground v.1.15,2013-02-20 18:47:00,
2013-02-20 10:52:00,54.5,34.7,29.78,WSW,243,1.0,14.0,47,0.00,,,0.00,Wunderground v.1.15,2013-02-20 18:52:00,
2013-02-20 10:58:00,54.6,36.8,29.78,WSW,240,1.0,14.0,51,0.00,,,0.00,Wunderground v.1.15,2013-02-20 18:58:00,
2013-02-20 11:03:00,54.8,36.5,29.78,WSW,241,1.0,14.0,50,0.00,,,0.00,Wunderground v.1.15,2013-02-20 19:03:00,
2013-02-20 11:08:00,55.1,35.2,29.78,WSW,241,1.0,14.0,47,0.00,,,0.00,Wunderground v.1.15,2013-02-20 19:08:00,
2013-02-20 11:13:00,55.3,37.0,29.78,WSW,252,0.0,14.0,50,0.00,,,0.00,Wunderground v.1.15,2013-02-20 19:13:00,
2013-02-20 11:18:00,55.9,39.0,29.78,WSW,257,0.0,14.0,53,0.00,,,0.00,Wunderground v.1.15,2013-02-20 19:18:00,
2013-02-20 11:23:00,56.8,38.9,29.78,WSW,258,1.0,14.0,51,0.00,,,0.00,Wunderground v.1.15,2013-02-20 19:23:00,
2013-02-20 11:28:00,57.3,35.6,29.77,WSW,258,1.0,14.0,44,0.00,,,0.00,Wunderground v.1.15,2013-02-20 19:28:00,
2013-02-20 11:33:00,57.0,35.3,29.77,WSW,258,1.0,14.0,44,0.00,,,0.00,Wunderground v.1.15,2013-02-20 19:33:00,
2013-02-20 11:38:00,56.8,37.3,29.77,WSW,257,0.0,14.0,48,0.00,,,0.00,Wunderground v.1.15,2013-02-20 19:38:00,
2013-02-20 11:43:00,56.7,35.6,29.77,WSW,258,0.0,14.0,45,0.00,,,0.00,Wunderground v.1.15,2013-02-20 19:43:00,
2013-02-20 11:48:00,57.3,35.6,29.77,WSW,257,1.0,14.0,44,0.00,,,0.00,Wunderground v.1.15,2013-02-20 19:48:00,
2013-02-20 11:54:00,58.4,37.1,29.77,WSW,257,0.0,14.0,45,0.00,,,0.00,Wunderground v.1.15,2013-02-20 19:54:00,
2013-02-20 11:59:00,58.6,36.2,29.77,WSW,258,0.0,14.0,43,0.00,,,0.00,Wunderground v.1.15,2013-02-20 19:59:00,
2013-02-20 12:04:00,58.4,35.4,29.77,WSW,257,0.0,14.0,42,0.00,,,0.00,Wunderground v.1.15,2013-02-20 20:04:00,
2013-02-20 12:09:00,58.2,35.2,29.76,WSW,257,0.0,14.0,42,0.00,,,0.00,Wunderground v.1.15,2013-02-20 20:09:00,
2013-02-20 12:14:00,58.4,35.4,29.76,WSW,258,0.0,14.0,42,0.00,,,0.00,Wunderground v.1.15,2013-02-20 20:14:00,
2013-02-20 12:19:00,58.8,35.1,29.76,WSW,257,0.0,14.0,41,0.00,,,0.00,Wunderground v.1.15,2013-02-20 20:19:00,
2013-02-20 12:24:00,58.9,34.0,29.76,WSW,258,0.0,14.0,39,0.00,,,0.00,Wunderground v.1.15,2013-02-20 20:24:00,
2013-02-20 12:30:00,59.1,34.8,29.75,WSW,257,0.0,14.0,40,0.00,,,0.00,Wunderground v.1.15,2013-02-20 20:30:00,
2013-02-20 12:36:00,59.5,36.4,29.75,WSW,256,1.0,14.0,42,0.00,,,0.00,Wunderground v.1.15,2013-02-20 20:36:00,
2013-02-20 12:41:00,59.1,36.0,29.75,WSW,257,2.0,14.0,42,0.00,,,0.00,Wunderground v.1.15,2013-02-20 20:41:00,
2013-02-20 12:46:00,59.5,37.0,29.75,WSW,249,2.0,14.0,43,0.00,,,0.00,Wunderground v.1.15,2013-02-20 20:46:00,
2013-02-20 12:51:00,59.6,35.9,29.75,WSW,252,2.0,14.0,41,0.00,,,0.00,Wunderground v.1.15,2013-02-20 20:51:00,
2013-02-20 12:56:00,59.6,37.1,29.75,WSW,247,1.0,14.0,43,0.00,,,0.00,Wunderground v.1.15,2013-02-20 20:56:00,
2013-02-20 13:01:00,59.7,36.6,29.74,SW,236,1.0,14.0,42,0.00,,,0.00,Wunderground v.1.15,2013-02-20 21:01:00,
2013-02-20 13:06:00,59.5,37.6,29.74,WSW,238,2.0,14.0,44,0.00,,,0.00,Wunderground v.1.15,2013-02-20 21:06:00,
2013-02-20 13:11:00,59.4,36.9,29.74,ESE,123,1.0,14.0,43,0.00,,,0.00,Wunderground v.1.15,2013-02-20 21:11:00,
2013-02-20 13:16:00,59.8,39.0,29.74,WSW,251,0.0,14.0,46,0.00,,,0.00,Wunderground v.1.15,2013-02-20 21:16:00,
2013-02-20 13:21:00,60.4,35.9,29.74,WNW,290,2.0,14.0,40,0.00,,,0.00,Wunderground v.1.15,2013-02-20 21:21:00,
2013-02-20 13:27:00,60.6,36.8,29.74,WSW,254,3.0,14.0,41,0.00,,,0.00,Wunderground v.1.15,2013-02-20 21:27:00,
2013-02-20 13:32:00,60.4,36.6,29.74,West,265,2.0,14.0,41,0.00,,,0.00,Wunderground v.1.15,2013-02-20 21:32:00,
2013-02-20 13:37:00,60.8,36.9,29.74,West,263,2.0,14.0,41,0.00,,,0.00,Wunderground v.1.15,2013-02-20 21:37:00,
2013-02-20 13:42:00,60.6,34.8,29.74,West,268,2.0,14.0,38,0.00,,,0.00,Wunderground v.1.15,2013-02-20 21:42:00,
2013-02-20 13:47:00,60.8,37.5,29.74,NW,312,2.0,14.0,42,0.00,,,0.00,Wunderground v.1.15,2013-02-20 21:47:00,
2013-02-20 13:52:00,61.1,37.8,29.74,WNW,284,2.0,14.0,42,0.00,,,0.00,Wunderground v.1.15,2013-02-20 21:52:00,
2013-02-20 13:57:00,61.4,37.5,29.74,WNW,284,3.0,14.0,41,0.00,,,0.00,Wunderground v.1.15,2013-02-20 21:57:00,
2013-02-20 14:02:00,61.3,37.4,29.74,WNW,294,2.0,14.0,41,0.00,,,0.00,Wunderground v.1.15,2013-02-20 22:02:00,
2013-02-20 14:07:00,61.4,36.8,29.74,WNW,300,1.0,14.0,40,0.00,,,0.00,Wunderground v.1.15,2013-02-20 22:07:00,
2013-02-20 14:12:00,61.5,36.9,29.74,WSW,248,2.0,14.0,40,0.00,,,0.00,Wunderground v.1.15,2013-02-20 22:12:00,
2013-02-20 14:17:00,61.2,37.9,29.74,West,267,4.0,14.0,42,0.00,,,0.00,Wunderground v.1.15,2013-02-20 22:17:00,
2013-02-20 14:23:00,61.6,38.9,29.74,West,264,4.0,14.0,43,0.00,,,0.00,Wunderground v.1.15,2013-02-20 22:23:00,
2013-02-20 14:28:00,61.9,38.5,29.74,WSW,254,3.0,14.0,42,0.00,,,0.00,Wunderground v.1.15,2013-02-20 22:28:00,
2013-02-20 14:33:00,61.9,37.3,29.74,WNW,298,4.0,14.0,40,0.00,,,0.00,Wunderground v.1.15,2013-02-20 22:33:00,
2013-02-20 14:38:00,61.7,37.7,29.75,SW,221,3.0,14.0,41,0.00,,,0.00,Wunderground v.1.15,2013-02-20 22:38:00,
2013-02-20 14:44:00,61.4,38.1,29.75,WNW,288,2.0,14.0,42,0.00,,,0.00,Wunderground v.1.15,2013-02-20 22:44:00,
2013-02-20 14:49:00,61.8,39.1,29.75,West,271,3.0,14.0,43,0.00,,,0.00,Wunderground v.1.15,2013-02-20 22:49:00,
2013-02-20 14:54:00,61.9,38.5,29.75,WSW,257,4.0,14.0,42,0.00,,,0.00,Wunderground v.1.15,2013-02-20 22:54:00,
2013-02-20 14:59:00,61.6,38.3,29.75,WSW,257,4.0,4.0,42,0.00,,,0.00,Wunderground v.1.15,2013-02-20 22:59:00,
2013-02-20 15:05:00,61.1,37.8,29.75,WNW,283,5.0,14.0,42,0.00,,,0.00,Wunderground v.1.15,2013-02-20 23:05:00,
2013-02-20 15:10:00,60.8,37.5,29.75,WSW,247,5.0,10.0,42,0.00,,,0.00,Wunderground v.1.15,2013-02-20 23:10:00,
2013-02-20 15:15:00,61.0,37.7,29.75,WSW,244,4.0,14.0,42,0.00,,,0.00,Wunderground v.1.15,2013-02-20 23:15:00,
2013-02-20 15:20:00,61.3,37.4,29.75,SW,232,4.0,14.0,41,0.00,,,0.00,Wunderground v.1.15,2013-02-20 23:20:00,
2013-02-20 15:25:00,61.2,38.5,29.75,WSW,247,5.0,14.0,43,0.00,,,0.00,Wunderground v.1.15,2013-02-20 23:25:00,
2013-02-20 15:31:00,61.3,38.6,29.75,West,271,4.0,14.0,43,0.00,,,0.00,Wunderground v.1.15,2013-02-20 23:31:00,
2013-02-20 15:36:00,61.6,38.9,29.75,WNW,302,3.0,14.0,43,0.00,,,0.00,Wunderground v.1.15,2013-02-20 23:36:00,
2013-02-20 15:41:00,61.9,39.1,29.75,SW,222,1.0,14.0,43,0.00,,,0.00,Wunderground v.1.15,2013-02-20 23:41:00,
2013-02-20 15:47:00,62.2,38.8,29.75,WSW,248,1.0,14.0,42,0.00,,,0.00,Wunderground v.1.15,2013-02-20 23:47:00,
2013-02-20 15:52:00,62.5,39.1,29.75,SW,223,1.0,14.0,42,0.00,,,0.00,Wunderground v.1.15,2013-02-20 23:52:00,
2013-02-20 15:57:00,61.9,40.3,29.74,South,188,2.0,14.0,45,0.00,,,0.00,Wunderground v.1.15,2013-02-20 23:57:00,
2013-02-20 16:02:00,61.0,42.7,29.75,SW,219,3.0,14.0,51,0.00,,,0.00,Wunderground v.1.15,2013-02-21 00:02:00,
2013-02-20 16:07:00,59.9,42.2,29.76,SSW,208,4.0,14.0,52,0.00,,,0.00,Wunderground v.1.15,2013-02-21 00:07:00,
2013-02-20 16:12:00,59.2,42.6,29.76,SW,223,5.0,14.0,54,0.00,,,0.00,Wunderground v.1.15,2013-02-21 00:12:00,
2013-02-20 16:17:00,58.9,43.2,29.76,SW,225,4.0,14.0,56,0.00,,,0.00,Wunderground v.1.15,2013-02-21 00:17:00,
2013-02-20 16:22:00,58.8,42.7,29.76,WSW,240,4.0,14.0,55,0.00,,,0.00,Wunderground v.1.15,2013-02-21 00:22:00,
2013-02-20 16:27:00,58.3,42.2,29.76,SW,216,4.0,14.0,55,0.00,,,0.00,Wunderground v.1.15,2013-02-21 00:27:00,
2013-02-20 16:32:00,57.8,42.2,29.76,SW,219,4.0,14.0,56,0.00,,,0.00,Wunderground v.1.15,2013-02-21 00:32:00,
2013-02-20 16:38:00,57.5,41.4,29.76,SSE,165,4.0,14.0,55,0.00,,,0.00,Wunderground v.1.15,2013-02-21 00:38:00,
2013-02-20 16:43:00,57.4,41.4,29.76,SSE,166,3.0,14.0,55,0.00,,,0.00,Wunderground v.1.15,2013-02-21 00:43:00,
2013-02-20 16:48:00,57.5,41.9,29.76,SW,221,2.0,14.0,56,0.00,,,0.00,Wunderground v.1.15,2013-02-21 00:48:00,
2013-02-20 16:53:00,57.5,41.4,29.76,SSE,156,2.0,14.0,55,0.00,,,0.00,Wunderground v.1.15,2013-02-21 00:53:00,
2013-02-20 16:58:00,57.6,42.0,29.76,SE,140,1.0,14.0,56,0.00,,,0.00,Wunderground v.1.15,2013-02-21 00:58:00,
2013-02-20 17:03:00,57.7,42.1,29.77,ESE,123,0.0,14.0,56,0.00,,,0.00,Wunderground v.1.15,2013-02-21 01:03:00,
2013-02-20 17:08:00,57.7,40.7,29.77,East,96,1.0,14.0,53,0.00,,,0.00,Wunderground v.1.15,2013-02-21 01:08:00,
2013-02-20 17:13:00,57.7,41.2,29.77,East,96,1.0,14.0,54,0.00,,,0.00,Wunderground v.1.15,2013-02-21 01:13:00,
2013-02-20 17:18:00,57.7,40.7,29.77,East,96,0.0,14.0,53,0.00,,,0.00,Wunderground v.1.15,2013-02-21 01:18:00,
2013-02-20 17:23:00,57.5,41.0,29.77,East,96,0.0,14.0,54,0.00,,,0.00,Wunderground v.1.15,2013-02-21 01:23:00,
2013-02-20 17:28:00,57.2,40.7,29.78,East,96,0.0,14.0,54,0.00,,,0.00,Wunderground v.1.15,2013-02-21 01:28:00,
2013-02-20 17:34:00,56.8,40.8,29.78,East,96,0.0,14.0,55,0.00,,,0.00,Wunderground v.1.15,2013-02-21 01:34:00,
2013-02-20 17:39:00,56.2,40.7,29.78,East,96,0.0,14.0,56,0.00,,,0.00,Wunderground v.1.15,2013-02-21 01:39:00,
2013-02-20 17:44:00,55.7,41.1,29.79,East,96,0.0,14.0,58,0.00,,,0.00,Wunderground v.1.15,2013-02-21 01:44:00,
2013-02-20 17:49:00,55.3,40.3,29.79,East,96,0.0,14.0,57,0.00,,,0.00,Wunderground v.1.15,2013-02-21 01:49:00,
2013-02-20 17:54:00,54.9,40.8,29.79,East,96,0.0,14.0,59,0.00,,,0.00,Wunderground v.1.15,2013-02-21 01:54:00,
2013-02-20 18:00:00,54.1,40.9,29.79,East,96,0.0,14.0,61,0.00,,,0.00,Wunderground v.1.15,2013-02-21 02:00:00,
2013-02-20 18:05:00,53.4,40.3,29.79,East,96,0.0,14.0,61,0.00,,,0.00,Wunderground v.1.15,2013-02-21 02:05:00,
2013-02-20 18:10:00,52.9,41.0,29.79,East,96,0.0,14.0,64,0.00,,,0.00,Wunderground v.1.15,2013-02-21 02:10:00,
2013-02-20 18:16:00,52.4,41.0,29.81,East,96,0.0,14.0,65,0.00,,,0.00,Wunderground v.1.15,2013-02-21 02:16:00,
2013-02-20 18:21:00,52.1,41.5,29.81,East,94,0.0,14.0,67,0.00,,,0.00,Wunderground v.1.15,2013-02-21 02:21:00,
2013-02-20 18:26:00,52.1,41.5,29.81,East,94,0.0,14.0,67,0.00,,,0.00,Wunderground v.1.15,2013-02-21 02:26:00,
2013-02-20 18:31:00,51.9,41.3,29.81,East,94,0.0,14.0,67,0.00,,,0.00,Wunderground v.1.15,2013-02-21 02:31:00,
2013-02-20 18:36:00,51.6,40.6,29.81,East,94,0.0,14.0,66,0.00,,,0.00,Wunderground v.1.15,2013-02-21 02:36:00,
2013-02-20 18:42:00,51.3,39.1,29.82,ESE,112,0.0,14.0,63,0.00,,,0.00,Wunderground v.1.15,2013-02-21 02:42:00,
2013-02-20 18:47:00,51.2,36.5,29.82,East,88,1.0,14.0,57,0.00,,,0.00,Wunderground v.1.15,2013-02-21 02:47:00,
2013-02-20 18:52:00,51.0,35.4,29.82,East,86,1.0,14.0,55,0.00,,,0.00,Wunderground v.1.15,2013-02-21 02:52:00,
2013-02-20 18:58:00,50.8,34.7,29.82,East,86,0.0,14.0,54,0.00,,,0.00,Wunderground v.1.15,2013-02-21 02:58:00,
2013-02-20 19:03:00,50.4,33.9,29.82,East,86,0.0,14.0,53,0.00,,,0.00,Wunderground v.1.15,2013-02-21 03:03:00,
2013-02-20 19:08:00,50.0,33.1,29.83,East,86,0.0,14.0,52,0.00,,,0.00,Wunderground v.1.15,2013-02-21 03:08:00,
2013-02-20 19:13:00,49.6,32.7,29.83,East,86,0.0,14.0,52,0.00,,,0.00,Wunderground v.1.15,2013-02-21 03:13:00,
2013-02-20 19:18:00,49.3,32.9,29.83,East,86,0.0,14.0,53,0.00,,,0.00,Wunderground v.1.15,2013-02-21 03:18:00,
2013-02-20 19:23:00,49.0,31.6,29.84,East,84,0.0,14.0,51,0.00,,,0.00,Wunderground v.1.15,2013-02-21 03:23:00,
2013-02-20 19:28:00,49.1,31.2,29.84,ENE,74,0.0,14.0,50,0.00,,,0.00,Wunderground v.1.15,2013-02-21 03:28:00,
2013-02-20 19:33:00,49.2,31.3,29.84,ENE,75,1.0,14.0,50,0.00,,,0.00,Wunderground v.1.15,2013-02-21 03:33:00,
2013-02-20 19:39:00,49.1,31.2,29.84,ENE,76,1.0,1.0,50,0.00,,,0.00,Wunderground v.1.15,2013-02-21 03:39:00,
2013-02-20 19:44:00,48.9,31.1,29.84,ENE,69,1.0,14.0,50,0.00,,,0.00,Wunderground v.1.15,2013-02-21 03:44:00,
2013-02-20 19:49:00,48.9,31.1,29.84,East,83,1.0,14.0,50,0.00,,,0.00,Wunderground v.1.15,2013-02-21 03:49:00,
2013-02-20 19:54:00,49.0,30.7,29.84,East,84,2.0,14.0,49,0.00,,,0.00,Wunderground v.1.15,2013-02-21 03:54:00,
2013-02-20 19:59:00,49.2,30.8,29.85,NE,55,2.0,14.0,49,0.00,,,0.00,Wunderground v.1.15,2013-02-21 03:59:00,
2013-02-20 20:04:00,49.2,30.3,29.85,ENE,72,1.0,14.0,48,0.00,,,0.00,Wunderground v.1.15,2013-02-21 04:04:00,
2013-02-20 20:09:00,49.2,30.8,29.85,ENE,72,0.0,14.0,49,0.00,,,0.00,Wunderground v.1.15,2013-02-21 04:09:00,
2013-02-20 20:14:00,49.0,31.6,29.85,ENE,72,0.0,14.0,51,0.00,,,0.00,Wunderground v.1.15,2013-02-21 04:14:00,
2013-02-20 20:19:00,48.6,31.8,29.85,ENE,68,0.0,14.0,52,0.00,,,0.00,Wunderground v.1.15,2013-02-21 04:19:00,
2013-02-20 20:24:00,48.5,31.2,29.86,ENE,69,0.0,14.0,51,0.00,,,0.00,Wunderground v.1.15,2013-02-21 04:24:00,
2013-02-20 20:29:00,48.3,31.0,29.86,ENE,68,0.0,14.0,51,0.00,,,0.00,Wunderground v.1.15,2013-02-21 04:29:00,
2013-02-20 20:34:00,48.0,31.7,29.86,ENE,69,0.0,14.0,53,0.00,,,0.00,Wunderground v.1.15,2013-02-21 04:34:00,
2013-02-20 20:40:00,47.5,32.1,29.86,ENE,69,0.0,14.0,55,0.00,,,0.00,Wunderground v.1.15,2013-02-21 04:40:00,
2013-02-20 20:45:00,47.0,32.1,29.87,ENE,69,0.0,14.0,56,0.00,,,0.00,Wunderground v.1.15,2013-02-21 04:45:00,
2013-02-20 20:50:00,46.5,32.5,29.87,ENE,69,0.0,14.0,58,0.00,,,0.00,Wunderground v.1.15,2013-02-21 04:50:00,
2013-02-20 20:55:00,46.1,32.6,29.86,ENE,69,0.0,14.0,59,0.00,,,0.00,Wunderground v.1.15,2013-02-21 04:55:00,
2013-02-20 21:00:00,45.6,32.5,29.87,ENE,69,0.0,14.0,60,0.00,,,0.00,Wunderground v.1.15,2013-02-21 05:00:00,
2013-02-20 21:02:00,45.5,32.4,29.87,ENE,69,0.0,14.0,60,0.00,,,0.00,Wunderground v.1.15,2013-02-21 05:02:00,
2013-02-20 21:03:00,45.5,32.0,29.87,ENE,69,0.0,14.0,59,0.00,,,0.00,Wunderground v.1.15,2013-02-21 05:03:00,
2013-02-20 21:07:00,45.3,32.2,29.87,ENE,68,0.0,14.0,60,0.00,,,0.00,Wunderground v.1.15,2013-02-21 05:07:00,
2013-02-20 21:12:00,45.2,32.1,29.88,ENE,69,0.0,14.0,60,0.00,,,0.00,Wunderground v.1.15,2013-02-21 05:12:00,
2013-02-20 21:17:00,44.9,32.3,29.88,ENE,68,0.0,14.0,61,0.00,,,0.00,Wunderground v.1.15,2013-02-21 05:17:00,
2013-02-20 21:23:00,44.6,32.4,29.88,ENE,68,0.0,14.0,62,0.00,,,0.00,Wunderground v.1.15,2013-02-21 05:23:00,
2013-02-20 21:28:00,44.2,32.4,29.88,ENE,68,0.0,14.0,63,0.00,,,0.00,Wunderground v.1.15,2013-02-21 05:28:00,
2013-02-20 21:33:00,43.9,32.5,29.89,ENE,68,0.0,14.0,64,0.00,,,0.00,Wunderground v.1.15,2013-02-21 05:33:00,
2013-02-20 21:38:00,43.5,32.1,29.89,ENE,69,0.0,14.0,64,0.00,,,0.00,Wunderground v.1.15,2013-02-21 05:38:00,
2013-02-20 21:43:00,43.2,32.6,29.89,ENE,69,0.0,14.0,66,0.00,,,0.00,Wunderground v.1.15,2013-02-21 05:43:00,
2013-02-20 21:48:00,42.8,33.0,29.90,ENE,68,0.0,14.0,68,0.00,,,0.00,Wunderground v.1.15,2013-02-21 05:48:00,
2013-02-20 21:53:00,42.4,34.0,29.90,ENE,69,0.0,14.0,72,0.00,,,0.00,Wunderground v.1.15,2013-02-21 05:53:00,
2013-02-20 21:59:00,41.9,32.8,29.89,ENE,69,0.0,14.0,70,0.00,,,0.00,Wunderground v.1.15,2013-02-21 05:59:00,
2013-02-20 22:04:00,41.6,33.2,29.89,ENE,69,0.0,14.0,72,0.00,,,0.00,Wunderground v.1.15,2013-02-21 06:04:00,
2013-02-20 22:09:00,41.3,33.0,29.89,ENE,68,0.0,14.0,72,0.00,,,0.00,Wunderground v.1.15,2013-02-21 06:09:00,
2013-02-20 22:15:00,41.0,32.7,29.90,ENE,69,0.0,14.0,72,0.00,,,0.00,Wunderground v.1.15,2013-02-21 06:15:00,
2013-02-20 22:21:00,40.8,32.8,29.89,ENE,68,0.0,14.0,73,0.00,,,0.00,Wunderground v.1.15,2013-02-21 06:21:00,
2013-02-20 22:26:00,40.6,33.0,29.89,ENE,69,0.0,14.0,74,0.00,,,0.00,Wunderground v.1.15,2013-02-21 06:26:00,
2013-02-20 22:31:00,40.4,32.8,29.90,ENE,69,0.0,14.0,74,0.00,,,0.00,Wunderground v.1.15,2013-02-21 06:31:00,
2013-02-20 22:36:00,40.1,32.8,29.90,ENE,69,0.0,14.0,75,0.00,,,0.00,Wunderground v.1.15,2013-02-21 06:36:00,
2013-02-20 22:41:00,39.9,32.6,29.90,ENE,69,0.0,14.0,75,0.00,,,0.00,Wunderground v.1.15,2013-02-21 06:41:00,
2013-02-20 22:46:00,39.7,32.4,29.90,ENE,68,0.0,14.0,75,0.00,,,0.00,Wunderground v.1.15,2013-02-21 06:46:00,
2013-02-20 22:51:00,39.7,32.8,29.90,ENE,69,0.0,14.0,76,0.00,,,0.00,Wunderground v.1.15,2013-02-21 06:51:00,
2013-02-20 22:57:00,39.6,33.0,29.90,ENE,69,0.0,14.0,77,0.00,,,0.00,Wunderground v.1.15,2013-02-21 06:57:00,
2013-02-20 23:02:00,39.4,32.8,29.90,ENE,69,0.0,14.0,77,0.00,,,0.00,Wunderground v.1.15,2013-02-21 07:02:00,
2013-02-20 23:07:00,39.3,33.0,29.90,ENE,69,0.0,14.0,78,0.00,,,0.00,Wunderground v.1.15,2013-02-21 07:07:00,
2013-02-20 23:12:00,39.2,32.6,29.90,ENE,68,0.0,14.0,77,0.00,,,0.00,Wunderground v.1.15,2013-02-21 07:12:00,
2013-02-20 23:18:00,39.0,32.7,29.90,ENE,69,0.0,14.0,78,0.00,,,0.00,Wunderground v.1.15,2013-02-21 07:18:00,
2013-02-20 23:23:00,38.9,32.6,29.90,ENE,68,0.0,14.0,78,0.00,,,0.00,Wunderground v.1.15,2013-02-21 07:23:00,
2013-02-20 23:28:00,38.9,32.6,29.90,ENE,69,0.0,14.0,78,0.00,,,0.00,Wunderground v.1.15,2013-02-21 07:28:00,
2013-02-20 23:33:00,38.9,32.6,29.90,ENE,69,0.0,14.0,78,0.00,,,0.00,Wunderground v.1.15,2013-02-21 07:33:00,
2013-02-20 23:39:00,38.9,32.6,29.91,ENE,68,0.0,14.0,78,0.00,,,0.00,Wunderground v.1.15,2013-02-21 07:39:00,
2013-02-20 23:44:00,38.9,32.3,29.91,ENE,69,0.0,14.0,77,0.00,,,0.00,Wunderground v.1.15,2013-02-21 07:44:00,
2013-02-20 23:49:00,39.1,32.5,29.91,ENE,68,0.0,14.0,77,0.00,,,0.00,Wunderground v.1.15,2013-02-21 07:49:00,
2013-02-20 23:54:00,39.1,32.2,29.91,ENE,69,0.0,14.0,76,0.00,,,0.00,Wunderground v.1.15,2013-02-21 07:54:00,
2013-02-20 23:59:00,39.0,32.4,29.91,ENE,68,0.0,14.0,77,0.00,,,0.00,Wunderground v.1.15,2013-02-21 07:59:00,